Time;durP1;ratioP1;P1;durP2;ratioP2;P2;SDS_P1;SDS_P2;PMS_P1;PMS_P2;Temp;Humidity;BMP_temperature;BMP_pressure;BME280_temperature;BME280_humidity;BME280_pressure;Samples;Min_cycle;Max_cycle;Signal;HPM_P1;HPM_P2
2021/05/07 00:01:50;;;;;;;;;;;18.80;99.90;;;;;;5012980;28;19918;-72
2021/05/07 00:04:17;;;;;;;;;;;18.80;99.90;;;;;;5016655;28;19973;-73
2021/05/07 00:06:44;;;;;;;;;;;18.80;99.90;;;;;;5016643;28;19914;-72
2021/05/07 00:09:14;;;;;;;;;;;18.80;99.90;;;;;;5016709;28;19914;-73
2021/05/07 00:11:40;;;;;;;;;;;18.90;99.90;;;;;;5017034;28;20284;-73
2021/05/07 00:14:07;;;;;;;;;;;18.90;99.90;;;;;;5016823;28;19909;-72
2021/05/07 00:16:34;;;;;;;;;;;18.90;99.90;;;;;;5016859;28;20036;-73
2021/05/07 00:19:00;;;;;;;;;;;19.10;99.90;;;;;;5016771;28;19917;-70
2021/05/07 00:21:27;;;;;;;;;;;19.10;99.90;;;;;;5016603;28;19918;-72
2021/05/07 00:23:54;;;;;;;;;;;19.00;99.90;;;;;;5016639;28;19913;-72
2021/05/07 00:26:20;;;;;;;;;;;19.20;99.90;;;;;;5016877;28;19963;-71
2021/05/07 00:28:47;;;;;;;;;;;19.30;99.90;;;;;;5016720;28;19920;-72
2021/05/07 00:31:16;;;;;;;;;;;19.50;99.90;;;;;;5016741;28;19914;-71
2021/05/07 00:33:44;;;;;;;;;;;19.60;99.90;;;;;;5016737;28;19920;-71
2021/05/07 00:36:11;;;;;;;;;;;19.70;99.90;;;;;;5016778;28;20272;-72
2021/05/07 00:38:37;;;;;;;;;;;19.80;99.90;;;;;;5017163;28;20379;-71
2021/05/07 00:41:04;;;;;;;;;;;19.90;99.90;;;;;;5016304;28;19939;-72
2021/05/07 00:43:31;;;;;;;;;;;19.90;99.90;;;;;;5016432;28;20348;-73
2021/05/07 00:45:57;;;;;;;;;;;20.00;99.90;;;;;;5016418;28;19910;-71
2021/05/07 00:48:24;;;;;;;;;;;20.10;99.90;;;;;;5016185;28;19913;-71
2021/05/07 00:50:51;;;;;;;;;;;20.30;99.90;;;;;;5015931;28;20008;-71
2021/05/07 00:53:19;;;;;;;;;;;20.30;99.90;;;;;;5016470;28;19909;-72
2021/05/07 00:55:45;;;;;;;;;;;20.40;99.90;;;;;;4998509;28;20305;-71
2021/05/07 00:58:12;;;;;;;;;;;20.40;99.90;;;;;;5016327;28;19932;-72
2021/05/07 01:00:41;;;;;;;;;;;20.50;99.90;;;;;;5016034;28;20292;-72
2021/05/07 01:03:11;;;;;;;;;;;20.50;99.90;;;;;;5016147;28;19913;-72
2021/05/07 01:05:38;;;;;;;;;;;20.60;99.90;;;;;;5015810;28;20665;-72
2021/05/07 01:08:04;;;;;;;;;;;20.60;99.90;;;;;;5016050;28;19987;-71
2021/05/07 01:10:31;;;;;;;;;;;20.60;99.90;;;;;;5016104;28;19910;-72
2021/05/07 01:12:58;;;;;;;;;;;20.70;99.90;;;;;;5015647;28;19916;-72
2021/05/07 01:15:25;;;;;;;;;;;20.70;99.90;;;;;;5015897;28;19944;-72
2021/05/07 01:17:53;;;;;;;;;;;20.70;99.90;;;;;;5017823;28;19910;-71
2021/05/07 01:20:27;;;;;;;;;;;20.60;99.90;;;;;;5016640;28;19909;-71
2021/05/07 01:22:55;;;;;;;;;;;20.60;99.90;;;;;;5015430;28;19979;-72
2021/05/07 01:25:22;;;;;;;;;;;20.60;99.90;;;;;;5015630;28;20364;-71
2021/05/07 01:27:50;;;;;;;;;;;20.70;99.90;;;;;;5015578;28;20249;-72
2021/05/07 01:30:20;;;;;;;;;;;20.70;99.90;;;;;;5015532;28;19916;-70
2021/05/07 01:32:48;;;;;;;;;;;20.70;99.90;;;;;;5015423;28;19909;-71
2021/05/07 01:35:17;;;;;;;;;;;20.40;99.90;;;;;;5015385;28;20026;-72
2021/05/07 01:37:44;;;;;;;;;;;20.20;99.90;;;;;;4997853;28;19917;-72
2021/05/07 01:40:15;;;;;;;;;;;20.00;99.90;;;;;;5015356;28;20346;-71
2021/05/07 01:42:41;;;;;;;;;;;19.80;99.90;;;;;;5011953;28;20360;-71
2021/05/07 01:45:09;;;;;;;;;;;19.90;99.90;;;;;;5015266;28;20298;-72
2021/05/07 01:47:36;;;;;;;;;;;19.90;99.90;;;;;;5015240;28;20326;-72
2021/05/07 01:50:05;;;;;;;;;;;19.90;99.90;;;;;;5015025;28;19909;-70
2021/05/07 01:52:32;;;;;;;;;;;20.10;99.90;;;;;;5015132;28;19910;-70
2021/05/07 01:54:59;;;;;;;;;;;20.20;99.90;;;;;;5015026;28;19928;-71
2021/05/07 01:57:29;;;;;;;;;;;20.20;99.90;;;;;;5015073;28;19909;-71
2021/05/07 01:59:56;;;;;;;;;;;20.30;99.90;;;;;;4997676;28;19957;-72
2021/05/07 02:02:23;;;;;;;;;;;20.30;99.90;;;;;;5014972;28;19918;-71
2021/05/07 02:04:49;;;;;;;;;;;20.30;99.90;;;;;;5014487;28;20001;-71
2021/05/07 02:07:16;;;;;;;;;;;20.40;99.90;;;;;;5014939;28;19917;-71
2021/05/07 02:09:43;;;;;;;;;;;20.50;99.90;;;;;;5015042;28;19937;-72
2021/05/07 02:12:10;;;;;;;;;;;20.60;99.90;;;;;;5014659;28;19910;-72
2021/05/07 02:14:37;;;;;;;;;;;20.60;99.90;;;;;;5014908;28;19916;-71
2021/05/07 02:17:04;;;;;;;;;;;20.60;99.90;;;;;;5014577;28;19913;-71
2021/05/07 02:19:31;;;;;;;;;;;20.50;99.90;;;;;;5014590;28;19910;-71
2021/05/07 02:21:58;;;;;;;;;;;20.50;99.90;;;;;;5014291;28;19917;-70
2021/05/07 02:24:24;;;;;;;;;;;20.50;99.90;;;;;;5013972;28;19916;-71
2021/05/07 02:26:51;;;;;;;;;;;20.60;99.90;;;;;;5014295;28;19913;-70
2021/05/07 02:29:18;;;;;;;;;;;20.60;99.90;;;;;;5014592;28;19909;-72
2021/05/07 02:31:45;;;;;;;;;;;20.60;99.90;;;;;;5014546;28;20004;-71
2021/05/07 02:34:14;;;;;;;;;;;20.50;99.90;;;;;;5014739;28;20268;-71
2021/05/07 02:36:41;;;;;;;;;;;20.50;99.90;;;;;;5014018;28;19909;-72
2021/05/07 02:39:08;;;;;;;;;;;20.50;99.90;;;;;;4996457;28;19910;-70
2021/05/07 02:41:36;;;;;;;;;;;20.30;99.90;;;;;;5014407;28;20012;-70
2021/05/07 02:44:06;;;;;;;;;;;20.20;99.90;;;;;;4998792;28;19914;-71
2021/05/07 02:46:36;;;;;;;;;;;20.10;99.90;;;;;;5018159;28;19914;-72
2021/05/07 02:49:07;;;;;;;;;;;20.10;99.90;;;;;;5013869;28;20284;-70
2021/05/07 02:51:34;;;;;;;;;;;20.30;99.90;;;;;;5013825;28;19920;-71
2021/05/07 02:54:01;;;;;;;;;;;20.50;99.90;;;;;;5013888;28;19916;-72
2021/05/07 02:56:28;;;;;;;;;;;20.60;99.90;;;;;;5014021;28;19913;-71
2021/05/07 02:58:54;;;;;;;;;;;20.60;99.90;;;;;;5013718;28;19909;-72
2021/05/07 03:01:22;;;;;;;;;;;20.70;99.90;;;;;;5013706;28;20356;-70
2021/05/07 03:03:50;;;;;;;;;;;20.70;99.90;;;;;;5014095;28;19909;-73
2021/05/07 03:06:17;;;;;;;;;;;20.80;99.90;;;;;;4996237;28;19918;-73
2021/05/07 03:08:43;;;;;;;;;;;21.00;99.90;;;;;;5013718;28;19909;-71
2021/05/07 03:11:10;;;;;;;;;;;21.00;99.90;;;;;;5013743;28;19916;-72
2021/05/07 03:13:38;;;;;;;;;;;21.00;99.90;;;;;;5014016;28;19909;-74
2021/05/07 03:16:05;;;;;;;;;;;21.00;99.90;;;;;;5013701;28;19910;-72
2021/05/07 03:18:32;;;;;;;;;;;20.90;99.90;;;;;;5013621;28;19910;-73
2021/05/07 03:20:59;;;;;;;;;;;20.80;99.90;;;;;;5013097;28;19996;-74
2021/05/07 03:23:25;;;;;;;;;;;20.80;99.90;;;;;;5013451;28;19909;-72
2021/05/07 03:25:52;;;;;;;;;;;20.90;99.90;;;;;;5013643;28;19992;-71
2021/05/07 03:28:19;;;;;;;;;;;20.80;99.90;;;;;;5013465;28;19909;-71
2021/05/07 03:30:47;;;;;;;;;;;20.90;99.90;;;;;;5013233;28;19960;-72
2021/05/07 03:33:13;;;;;;;;;;;21.00;99.90;;;;;;5013527;28;19920;-71
2021/05/07 03:35:40;;;;;;;;;;;20.90;99.90;;;;;;5013261;28;19952;-72
2021/05/07 03:38:06;;;;;;;;;;;20.90;99.90;;;;;;5013139;28;19910;-72
2021/05/07 03:40:33;;;;;;;;;;;20.80;99.90;;;;;;5013277;28;19914;-72
2021/05/07 03:43:00;;;;;;;;;;;20.70;99.90;;;;;;5012763;28;19921;-70
2021/05/07 03:45:27;;;;;;;;;;;20.70;99.90;;;;;;5013188;28;20388;-71
2021/05/07 03:47:54;;;;;;;;;;;20.70;99.90;;;;;;5013195;28;19914;-72
2021/05/07 03:50:21;;;;;;;;;;;20.60;99.90;;;;;;5013349;28;19910;-69
2021/05/07 03:52:47;;;;;;;;;;;20.60;99.90;;;;;;5013032;28;19913;-71
2021/05/07 03:55:14;;;;;;;;;;;20.50;99.90;;;;;;5013036;28;20017;-70
2021/05/07 03:57:42;;;;;;;;;;;20.50;99.90;;;;;;5013043;28;19992;-70
2021/05/07 04:00:11;;;;;;;;;;;20.50;99.90;;;;;;5013041;28;19913;-70
2021/05/07 04:02:40;;;;;;;;;;;20.60;99.90;;;;;;5013118;28;19918;-70
2021/05/07 04:05:07;;;;;;;;;;;20.60;99.90;;;;;;5012704;28;20315;-70
2021/05/07 04:07:34;;;;;;;;;;;20.70;99.90;;;;;;4995667;28;20380;-71
2021/05/07 04:10:04;;;;;;;;;;;20.80;99.90;;;;;;5012801;28;19910;-70
2021/05/07 04:15:01;;;;;;;;;;;21.00;99.90;;;;;;5014855;28;19910;-71
2021/05/07 04:17:27;;;;;;;;;;;21.00;99.90;;;;;;5013102;28;20283;-72
2021/05/07 04:19:54;;;;;;;;;;;21.00;99.90;;;;;;5012905;28;20019;-72
2021/05/07 04:22:20;;;;;;;;;;;20.80;99.90;;;;;;5012703;28;19917;-72
2021/05/07 04:24:47;;;;;;;;;;;20.60;99.90;;;;;;5012721;28;19910;-73
2021/05/07 04:27:14;;;;;;;;;;;20.50;99.90;;;;;;5012872;28;19976;-70
2021/05/07 04:29:41;;;;;;;;;;;20.50;99.90;;;;;;5012764;28;19909;-72
2021/05/07 04:32:08;;;;;;;;;;;20.50;99.90;;;;;;5013078;28;19920;-73
2021/05/07 04:34:34;;;;;;;;;;;20.50;99.90;;;;;;5012649;28;19916;-71
2021/05/07 04:37:01;;;;;;;;;;;20.50;99.90;;;;;;5012705;28;20331;-71
2021/05/07 04:39:28;;;;;;;;;;;20.50;99.90;;;;;;5012506;28;20304;-72
2021/05/07 04:41:54;;;;;;;;;;;20.40;99.90;;;;;;5012612;28;19972;-72
2021/05/07 04:44:21;;;;;;;;;;;20.50;99.90;;;;;;5012658;28;20004;-71
2021/05/07 04:46:48;;;;;;;;;;;20.50;99.90;;;;;;5012377;28;19909;-72
2021/05/07 04:49:14;;;;;;;;;;;20.50;99.90;;;;;;5012672;28;19952;-71
2021/05/07 04:51:41;;;;;;;;;;;20.60;99.90;;;;;;5015546;28;20356;-71
2021/05/07 04:54:08;;;;;;;;;;;20.60;99.90;;;;;;5015982;28;19910;-70
2021/05/07 04:56:34;;;;;;;;;;;20.70;99.90;;;;;;5016212;28;20288;-71
2021/05/07 04:59:01;;;;;;;;;;;20.80;99.90;;;;;;5016044;28;20265;-71
2021/05/07 05:01:27;;;;;;;;;;;20.80;99.90;;;;;;5016159;28;19944;-70
2021/05/07 05:03:54;;;;;;;;;;;20.80;99.90;;;;;;5016061;28;20004;-70
2021/05/07 05:06:21;;;;;;;;;;;20.70;99.90;;;;;;5016037;28;19950;-69
2021/05/07 05:08:48;;;;;;;;;;;20.60;99.90;;;;;;5014969;28;20253;-70
2021/05/07 05:11:14;;;;;;;;;;;20.60;99.90;;;;;;5015867;28;19916;-71
2021/05/07 05:13:41;;;;;;;;;;;20.60;99.90;;;;;;5016909;28;19917;-68
2021/05/07 05:16:09;;;;;;;;;;;20.50;99.90;;;;;;5016319;28;20351;-71
2021/05/07 05:18:38;;;;;;;;;;;20.50;99.90;;;;;;4998897;28;19957;-71
2021/05/07 05:21:10;;;;;;;;;;;20.60;99.90;;;;;;5016067;28;19921;-70
2021/05/07 05:23:41;;;;;;;;;;;20.50;99.90;;;;;;5015946;28;20008;-73
2021/05/07 05:26:08;;;;;;;;;;;20.50;99.90;;;;;;5015771;28;19929;-71
2021/05/07 05:28:36;;;;;;;;;;;20.60;99.90;;;;;;5015895;28;20004;-71
2021/05/07 05:31:03;;;;;;;;;;;20.60;99.90;;;;;;5015564;28;20894;-71
2021/05/07 05:33:30;;;;;;;;;;;20.60;99.90;;;;;;5015685;28;19909;-72
2021/05/07 05:35:56;;;;;;;;;;;20.60;99.90;;;;;;5015885;28;19964;-71
2021/05/07 05:38:23;;;;;;;;;;;20.70;99.90;;;;;;5015721;28;19919;-71
2021/05/07 05:40:50;;;;;;;;;;;20.70;99.90;;;;;;5015789;28;19909;-71
2021/05/07 05:43:17;;;;;;;;;;;20.70;99.90;;;;;;5015746;28;19921;-72
2021/05/07 05:45:43;;;;;;;;;;;20.60;99.90;;;;;;4997700;28;19985;-73
2021/05/07 05:48:14;;;;;;;;;;;20.50;99.90;;;;;;5015157;28;19910;-71
2021/05/07 05:50:47;;;;;;;;;;;20.50;99.90;;;;;;5015215;28;19917;-72
2021/05/07 05:53:14;;;;;;;;;;;20.40;99.90;;;;;;5014963;28;20012;-71
2021/05/07 05:55:41;;;;;;;;;;;20.30;99.90;;;;;;5015094;28;19909;-73
2021/05/07 05:58:08;;;;;;;;;;;20.30;99.90;;;;;;5015115;28;19980;-72
2021/05/07 06:00:35;;;;;;;;;;;20.30;99.90;;;;;;5014731;28;19909;-70
2021/05/07 06:03:02;;;;;;;;;;;20.30;99.90;;;;;;5014895;28;19917;-72
2021/05/07 06:05:29;;;;;;;;;;;20.30;99.90;;;;;;5014874;28;19910;-71
2021/05/07 06:07:56;;;;;;;;;;;20.20;99.90;;;;;;5014856;28;20359;-71
2021/05/07 06:10:22;;;;;;;;;;;20.20;99.90;;;;;;5014857;28;19910;-71
2021/05/07 06:12:49;;;;;;;;;;;20.20;99.90;;;;;;5014545;28;19909;-70
2021/05/07 06:15:18;;;;;;;;;;;20.10;99.90;;;;;;5014647;28;19916;-71
2021/05/07 06:17:45;;;;;;;;;;;20.10;99.90;;;;;;5014831;28;20386;-71
2021/05/07 06:20:13;;;;;;;;;;;20.10;99.90;;;;;;5014715;28;20327;-72
2021/05/07 06:22:39;;;;;;;;;;;20.10;99.90;;;;;;5014482;28;19917;-72
2021/05/07 06:25:08;;;;;;;;;;;20.10;99.90;;;;;;5014043;28;19916;-71
2021/05/07 06:27:35;;;;;;;;;;;20.10;99.90;;;;;;5014397;28;19914;-72
2021/05/07 06:30:01;;;;;;;;;;;20.00;99.90;;;;;;5014405;28;19913;-72
2021/05/07 06:32:28;;;;;;;;;;;20.00;99.90;;;;;;5014483;28;20261;-72
2021/05/07 06:34:55;;;;;;;;;;;19.90;99.90;;;;;;5013965;28;19910;-72
2021/05/07 06:37:21;;;;;;;;;;;20.00;99.90;;;;;;5014220;28;19910;-73
2021/05/07 06:39:48;;;;;;;;;;;20.00;99.90;;;;;;5014299;28;19917;-72
2021/05/07 06:42:15;;;;;;;;;;;20.00;99.90;;;;;;5013804;28;19928;-72
2021/05/07 06:44:44;;;;;;;;;;;20.00;99.90;;;;;;5013254;28;21264;-72
2021/05/07 06:47:11;;;;;;;;;;;20.10;99.90;;;;;;5014227;28;20280;-73
2021/05/07 06:49:38;;;;;;;;;;;20.00;99.90;;;;;;5013970;28;19936;-72
2021/05/07 06:52:05;;;;;;;;;;;19.90;99.90;;;;;;5014060;28;19955;-71
2021/05/07 06:54:31;;;;;;;;;;;19.90;99.90;;;;;;5014006;28;20236;-73
2021/05/07 06:56:59;;;;;;;;;;;19.90;99.90;;;;;;5013878;28;19910;-73
2021/05/07 06:59:26;;;;;;;;;;;19.90;99.90;;;;;;5014150;28;20374;-72
2021/05/07 07:01:53;;;;;;;;;;;19.90;99.90;;;;;;5014027;28;19964;-73
2021/05/07 07:04:20;;;;;;;;;;;19.90;99.90;;;;;;5014526;28;19910;-74
2021/05/07 07:06:47;;;;;;;;;;;19.90;99.90;;;;;;5000447;28;20489;-73
2021/05/07 07:09:15;;;;;;;;;;;19.90;99.90;;;;;;5017418;28;20327;-73
2021/05/07 07:11:42;;;;;;;;;;;19.90;99.90;;;;;;5014551;28;19910;-72
2021/05/07 07:14:08;;;;;;;;;;;19.90;99.90;;;;;;5013037;28;19916;-72
2021/05/07 07:16:35;;;;;;;;;;;19.80;99.90;;;;;;5013795;28;19988;-72
2021/05/07 07:19:02;;;;;;;;;;;19.90;99.90;;;;;;5013417;28;19909;-72
2021/05/07 07:21:29;;;;;;;;;;;19.90;99.90;;;;;;5013735;28;19920;-72
2021/05/07 07:23:55;;;;;;;;;;;19.90;99.90;;;;;;5003234;28;19910;-72
2021/05/07 07:26:22;;;;;;;;;;;19.90;99.90;;;;;;4993861;28;20357;-72
2021/05/07 07:28:53;;;;;;;;;;;19.90;99.90;;;;;;4993503;28;19920;-72
2021/05/07 07:31:21;;;;;;;;;;;19.90;99.90;;;;;;4993789;28;19917;-70
2021/05/07 07:33:48;;;;;;;;;;;19.80;99.90;;;;;;4993090;28;20048;-71
2021/05/07 07:36:15;;;;;;;;;;;19.80;99.90;;;;;;4993921;28;20277;-71
2021/05/07 07:38:41;;;;;;;;;;;19.90;99.90;;;;;;4993621;28;19973;-71
2021/05/07 07:41:10;;;;;;;;;;;19.80;99.90;;;;;;4990953;28;20000;-72
2021/05/07 07:43:36;;;;;;;;;;;19.80;99.90;;;;;;4991423;28;19940;-72
2021/05/07 07:46:03;;;;;;;;;;;19.80;99.90;;;;;;4991512;28;20008;-72
2021/05/07 07:48:29;;;;;;;;;;;19.80;99.90;;;;;;4991076;28;19914;-72
2021/05/07 07:50:56;;;;;;;;;;;19.80;99.90;;;;;;4991224;28;20348;-72
2021/05/07 07:53:23;;;;;;;;;;;19.80;99.90;;;;;;4991099;28;19922;-72
2021/05/07 07:55:52;;;;;;;;;;;19.80;99.90;;;;;;4991398;28;19910;-71
2021/05/07 07:58:19;;;;;;;;;;;19.80;99.90;;;;;;4991486;28;19909;-69
2021/05/07 08:00:46;;;;;;;;;;;19.80;99.90;;;;;;4991335;28;19956;-71
2021/05/07 08:03:14;;;;;;;;;;;19.80;99.90;;;;;;4990632;28;19922;-71
2021/05/07 08:05:40;;;;;;;;;;;19.70;99.90;;;;;;4991141;28;19917;-70
2021/05/07 08:08:07;;;;;;;;;;;19.70;99.90;;;;;;4991132;28;20000;-70
2021/05/07 08:10:34;;;;;;;;;;;19.70;99.90;;;;;;4991263;28;19913;-71
2021/05/07 08:13:01;;;;;;;;;;;19.70;99.90;;;;;;4991215;28;19996;-71
2021/05/07 08:15:28;;;;;;;;;;;19.70;99.90;;;;;;4991356;28;20369;-71
2021/05/07 08:17:55;;;;;;;;;;;19.70;99.90;;;;;;4991163;28;20386;-70
2021/05/07 08:20:22;;;;;;;;;;;19.70;99.90;;;;;;4991524;28;19914;-69
2021/05/07 08:22:49;;;;;;;;;;;19.70;99.90;;;;;;4990961;28;19917;-71
2021/05/07 08:25:16;;;;;;;;;;;19.70;99.90;;;;;;4994705;28;20317;-69
2021/05/07 08:27:43;;;;;;;;;;;19.60;99.90;;;;;;4993999;28;19930;-71
2021/05/07 08:30:11;;;;;;;;;;;19.60;99.90;;;;;;4995036;28;19910;-69
2021/05/07 08:32:37;;;;;;;;;;;19.60;99.90;;;;;;4994187;28;19910;-69
2021/05/07 08:35:04;;;;;;;;;;;19.60;99.90;;;;;;4994811;28;19910;-70
2021/05/07 08:37:31;;;;;;;;;;;19.50;99.90;;;;;;4994902;28;19917;-70
2021/05/07 08:39:58;;;;;;;;;;;19.60;99.90;;;;;;4995078;28;19925;-70
2021/05/07 08:42:24;;;;;;;;;;;19.50;99.90;;;;;;4994621;28;20496;-72
2021/05/07 08:44:51;;;;;;;;;;;19.50;99.90;;;;;;4994529;28;20009;-71
2021/05/07 08:47:19;;;;;;;;;;;19.50;99.90;;;;;;4994350;28;20376;-72
2021/05/07 08:49:51;;;;;;;;;;;19.40;99.90;;;;;;4994613;28;19986;-72
2021/05/07 08:52:19;;;;;;;;;;;19.40;99.90;;;;;;4994687;28;19913;-71
2021/05/07 08:54:46;;;;;;;;;;;19.30;99.90;;;;;;4994570;28;20380;-72
2021/05/07 08:57:13;;;;;;;;;;;19.30;99.90;;;;;;4994551;28;19914;-72
2021/05/07 08:59:39;;;;;;;;;;;19.30;99.90;;;;;;4994261;28;19914;-71
2021/05/07 09:02:06;;;;;;;;;;;19.30;99.90;;;;;;4993808;28;20360;-74
2021/05/07 09:04:33;;;;;;;;;;;19.20;99.90;;;;;;4994301;28;19917;-73
2021/05/07 09:06:59;;;;;;;;;;;19.20;99.90;;;;;;4996214;28;20004;-74
2021/05/07 09:09:27;;;;;;;;;;;19.20;99.90;;;;;;4996610;28;19922;-75
2021/05/07 09:11:57;;;;;;;;;;;19.20;99.90;;;;;;4996546;28;19940;-74
2021/05/07 09:14:25;;;;;;;;;;;19.20;99.90;;;;;;4996366;28;19920;-74
2021/05/07 09:16:53;;;;;;;;;;;19.20;99.90;;;;;;4995506;28;19979;-74
2021/05/07 09:19:20;;;;;;;;;;;19.30;99.90;;;;;;4995934;28;19914;-73
2021/05/07 09:21:47;;;;;;;;;;;19.30;99.90;;;;;;4995889;28;20361;-74
2021/05/07 09:24:14;;;;;;;;;;;19.30;99.90;;;;;;4996111;28;19936;-74
2021/05/07 09:26:48;;;;;;;;;;;19.20;99.90;;;;;;4996048;28;19976;-74
2021/05/07 09:29:19;;;;;;;;;;;19.20;99.90;;;;;;4995982;28;19909;-71
2021/05/07 09:31:48;;;;;;;;;;;19.20;99.90;;;;;;5007100;28;19913;-74
2021/05/07 09:34:15;;;;;;;;;;;19.10;99.90;;;;;;5015049;28;20349;-74
2021/05/07 09:36:42;;;;;;;;;;;19.10;99.90;;;;;;5013140;28;19910;-71
2021/05/07 09:39:16;;;;;;;;;;;19.10;99.90;;;;;;5015405;28;19910;-74
2021/05/07 09:41:44;;;;;;;;;;;19.10;99.90;;;;;;5014839;28;19921;-71
2021/05/07 09:44:21;;;;;;;;;;;19.10;99.90;;;;;;5015330;28;19910;-73
2021/05/07 09:46:48;;;;;;;;;;;19.10;99.90;;;;;;5015073;28;20450;-72
2021/05/07 09:49:24;;;;;;;;;;;19.10;99.90;;;;;;4997644;28;19910;-72
2021/05/07 09:51:51;;;;;;;;;;;19.10;99.90;;;;;;5015218;28;19917;-72
2021/05/07 09:54:17;;;;;;;;;;;19.10;99.90;;;;;;5015270;28;19941;-72
2021/05/07 09:56:44;;;;;;;;;;;19.10;99.90;;;;;;5014949;28;19920;-72
2021/05/07 09:59:15;;;;;;;;;;;19.00;99.90;;;;;;5015061;28;20284;-71
2021/05/07 10:01:46;;;;;;;;;;;19.00;99.90;;;;;;4997510;28;20307;-70
2021/05/07 10:04:13;;;;;;;;;;;19.00;99.90;;;;;;5015350;28;20013;-69
2021/05/07 10:06:40;;;;;;;;;;;19.00;99.90;;;;;;5015448;28;19945;-68
2021/05/07 10:09:07;;;;;;;;;;;19.00;99.90;;;;;;5014758;28;19910;-69
2021/05/07 10:11:36;;;;;;;;;;;18.90;99.90;;;;;;5014933;28;20367;-70
2021/05/07 10:14:13;;;;;;;;;;;19.00;99.90;;;;;;5014844;28;20290;-69
2021/05/07 10:16:40;;;;;;;;;;;19.00;99.90;;;;;;5014641;28;20000;-69
2021/05/07 10:19:07;;;;;;;;;;;19.00;99.90;;;;;;5014439;28;20376;-71
2021/05/07 10:21:41;;;;;;;;;;;19.00;99.90;;;;;;5014661;28;19922;-71
2021/05/07 10:24:14;;;;;;;;;;;18.90;99.90;;;;;;5014737;28;19964;-69
2021/05/07 10:26:42;;;;;;;;;;;19.00;99.90;;;;;;5014615;28;19917;-70
2021/05/07 10:29:21;;;;;;;;;;;18.90;99.90;;;;;;5014542;28;19916;-69
2021/05/07 10:31:50;;;;;;;;;;;18.90;99.90;;;;;;5014321;28;19909;-70
2021/05/07 10:34:17;;;;;;;;;;;18.90;99.90;;;;;;5014382;28;20024;-69
2021/05/07 10:36:54;;;;;;;;;;;18.90;99.90;;;;;;5014232;28;19913;-69
2021/05/07 10:39:22;;;;;;;;;;;18.80;99.90;;;;;;5014478;28;20360;-68
2021/05/07 10:41:50;;;;;;;;;;;18.80;99.90;;;;;;5014037;28;19928;-70
2021/05/07 10:44:17;;;;;;;;;;;18.80;99.90;;;;;;5014239;28;19909;-69
2021/05/07 10:46:45;;;;;;;;;;;18.80;99.90;;;;;;5013448;28;19933;-69
2021/05/07 10:49:13;;;;;;;;;;;18.80;99.90;;;;;;5013976;28;19909;-68
2021/05/07 10:51:40;;;;;;;;;;;18.80;99.90;;;;;;5014034;28;19909;-68
2021/05/07 10:54:10;;;;;;;;;;;18.70;99.90;;;;;;5014183;28;20502;-69
2021/05/07 10:56:38;;;;;;;;;;;18.70;99.90;;;;;;5014014;28;20307;-69
2021/05/07 10:59:12;;;;;;;;;;;18.70;99.90;;;;;;5013892;28;19910;-70
2021/05/07 11:01:39;;;;;;;;;;;18.70;99.90;;;;;;5003290;28;19978;-71
2021/05/07 11:04:07;;;;;;;;;;;18.60;99.90;;;;;;4994188;28;20348;-69
2021/05/07 11:06:45;;;;;;;;;;;18.70;99.90;;;;;;4994177;28;19914;-68
2021/05/07 11:09:21;;;;;;;;;;;18.60;99.90;;;;;;4994233;28;19924;-69
2021/05/07 11:11:48;;;;;;;;;;;18.60;99.90;;;;;;4993506;28;20260;-69
2021/05/07 11:14:19;;;;;;;;;;;18.60;99.90;;;;;;4994068;28;19941;-69
2021/05/07 11:16:47;;;;;;;;;;;18.60;99.90;;;;;;4993719;28;19910;-68
2021/05/07 11:19:22;;;;;;;;;;;18.60;99.90;;;;;;4994030;28;19956;-68
2021/05/07 11:21:59;;;;;;;;;;;18.60;99.90;;;;;;4993933;28;19917;-68
2021/05/07 11:24:27;;;;;;;;;;;18.50;99.90;;;;;;4993867;28;19910;-68
2021/05/07 11:26:54;;;;;;;;;;;18.50;99.90;;;;;;4993109;28;19914;-67
2021/05/07 11:29:27;;;;;;;;;;;18.50;99.90;;;;;;4993859;28;19909;-69
2021/05/07 11:31:54;;;;;;;;;;;18.40;99.90;;;;;;4993916;28;19937;-68
2021/05/07 11:34:27;;;;;;;;;;;18.40;99.90;;;;;;4994036;28;19916;-71
2021/05/07 11:36:57;;;;;;;;;;;18.30;99.90;;;;;;4993677;28;19953;-70
2021/05/07 11:39:24;;;;;;;;;;;18.30;99.90;;;;;;4993740;28;19921;-71
2021/05/07 11:41:51;;;;;;;;;;;18.40;99.90;;;;;;4993769;28;20437;-70
2021/05/07 11:44:18;;;;;;;;;;;18.30;99.90;;;;;;4993779;28;19957;-74
2021/05/07 11:47:05;;;;;;;;;;;18.30;99.90;;;;;;5000231;28;19963;-71
2021/05/07 11:49:35;;;;;;;;;;;18.30;99.90;;;;;;5013226;28;19918;-70
2021/05/07 11:52:02;;;;;;;;;;;18.30;99.90;;;;;;5012747;28;19941;-69
2021/05/07 11:54:38;;;;;;;;;;;18.20;99.90;;;;;;5013185;28;20334;-70
2021/05/07 11:57:05;;;;;;;;;;;18.20;99.90;;;;;;5012934;28;19910;-70
2021/05/07 11:59:32;;;;;;;;;;;18.20;99.90;;;;;;5015546;28;20012;-70
2021/05/07 12:02:06;;;;;;;;;;;18.20;99.90;;;;;;5016768;28;19925;-71
2021/05/07 12:04:42;;;;;;;;;;;18.20;99.90;;;;;;4997413;28;20561;-69
2021/05/07 12:07:19;;;;;;;;;;;18.20;99.90;;;;;;5014739;28;19955;-68
2021/05/07 12:09:49;;;;;;;;;;;18.10;99.90;;;;;;4997164;28;19917;-70
2021/05/07 12:12:16;;;;;;;;;;;18.10;99.90;;;;;;4997225;28;19910;-70
2021/05/07 12:14:49;;;;;;;;;;;18.10;99.90;;;;;;5014825;28;19932;-70
2021/05/07 12:17:16;;;;;;;;;;;18.10;99.90;;;;;;5014469;28;19910;-70
2021/05/07 12:19:43;;;;;;;;;;;18.00;99.90;;;;;;5015051;28;19940;-71
2021/05/07 12:22:29;;;;;;;;;;;18.00;99.90;;;;;;5009468;28;19933;-70
2021/05/07 12:25:06;;;;;;;;;;;18.00;99.90;;;;;;5004181;28;19913;-69
2021/05/07 12:27:33;;;;;;;;;;;18.00;99.90;;;;;;5014871;28;20292;-69
2021/05/07 12:30:03;;;;;;;;;;;17.90;99.90;;;;;;5010462;28;20020;-70
2021/05/07 12:32:29;;;;;;;;;;;17.90;99.90;;;;;;5005495;28;20275;-69
2021/05/07 12:34:58;;;;;;;;;;;17.90;99.90;;;;;;4994605;28;19941;-70
2021/05/07 12:37:24;;;;;;;;;;;17.80;99.90;;;;;;4994197;28;19916;-70
2021/05/07 12:39:52;;;;;;;;;;;17.80;99.90;;;;;;4994795;28;19913;-69
2021/05/07 12:42:19;;;;;;;;;;;17.80;99.90;;;;;;4994522;28;19929;-69
2021/05/07 12:44:46;;;;;;;;;;;17.80;99.90;;;;;;4994071;28;19910;-69
2021/05/07 12:47:12;;;;;;;;;;;17.90;99.90;;;;;;4976979;28;19922;-69
2021/05/07 12:49:39;;;;;;;;;;;17.80;99.90;;;;;;4994699;28;19913;-70
2021/05/07 12:52:06;;;;;;;;;;;17.80;99.90;;;;;;4994275;28;19918;-69
2021/05/07 12:54:32;;;;;;;;;;;17.80;99.90;;;;;;4994930;28;20634;-69
2021/05/07 12:56:59;;;;;;;;;;;17.80;99.90;;;;;;4994258;28;19921;-70
2021/05/07 12:59:26;;;;;;;;;;;17.80;99.90;;;;;;4994704;28;19917;-70
2021/05/07 13:01:52;;;;;;;;;;;17.80;99.90;;;;;;5002052;28;19922;-72
2021/05/07 13:04:20;;;;;;;;;;;17.80;99.90;;;;;;4998144;28;19910;-72
2021/05/07 13:06:47;;;;;;;;;;;17.80;99.90;;;;;;5005278;28;20024;-72
2021/05/07 13:09:13;;;;;;;;;;;17.80;99.90;;;;;;5003256;28;20484;-72
2021/05/07 13:11:40;;;;;;;;;;;17.80;99.90;;;;;;5012718;28;19911;-72
2021/05/07 13:14:10;;;;;;;;;;;17.80;99.90;;;;;;5013958;28;20407;-72
2021/05/07 13:16:37;;;;;;;;;;;17.80;99.90;;;;;;5013845;28;20789;-75
2021/05/07 13:19:03;;;;;;;;;;;17.80;99.90;;;;;;5002113;28;19972;-75
2021/05/07 13:21:30;;;;;;;;;;;17.70;99.90;;;;;;5006519;28;19918;-71
2021/05/07 13:23:57;;;;;;;;;;;17.70;99.90;;;;;;5014572;28;19932;-72
2021/05/07 13:26:24;;;;;;;;;;;17.70;99.90;;;;;;4995574;28;19921;-71
2021/05/07 13:28:55;;;;;;;;;;;17.70;99.90;;;;;;5013553;28;19909;-71
2021/05/07 13:31:23;;;;;;;;;;;17.70;99.90;;;;;;5012391;28;20328;-71
2021/05/07 13:33:50;;;;;;;;;;;17.70;99.90;;;;;;5012350;28;20340;-71
2021/05/07 13:36:17;;;;;;;;;;;17.70;99.90;;;;;;5011515;28;20480;-73
2021/05/07 13:38:45;;;;;;;;;;;17.70;99.90;;;;;;5011557;28;19960;-72
2021/05/07 13:41:12;;;;;;;;;;;17.70;99.90;;;;;;5011462;28;19933;-72
2021/05/07 13:43:39;;;;;;;;;;;17.60;99.90;;;;;;5011744;28;19909;-72
2021/05/07 13:46:06;;;;;;;;;;;17.70;99.90;;;;;;5011544;28;19910;-73
2021/05/07 13:48:33;;;;;;;;;;;17.60;99.90;;;;;;5011863;28;19960;-72
2021/05/07 13:51:00;;;;;;;;;;;17.60;99.90;;;;;;5012882;28;19909;-72
2021/05/07 13:53:27;;;;;;;;;;;17.60;99.90;;;;;;5013246;28;20040;-73
2021/05/07 13:55:53;;;;;;;;;;;17.60;99.90;;;;;;5013365;28;19913;-71
2021/05/07 13:58:20;;;;;;;;;;;17.60;99.90;;;;;;5013072;28;20298;-72
2021/05/07 14:00:47;;;;;;;;;;;17.60;99.90;;;;;;5012978;28;19914;-72
2021/05/07 14:03:13;;;;;;;;;;;17.60;99.90;;;;;;5012671;28;20395;-71
2021/05/07 14:05:42;;;;;;;;;;;17.60;99.90;;;;;;5013188;28;20603;-72
2021/05/07 14:08:08;;;;;;;;;;;17.60;99.90;;;;;;5013123;28;19965;-70
2021/05/07 14:10:35;;;;;;;;;;;17.60;99.90;;;;;;5013018;28;19917;-69
2021/05/07 14:13:02;;;;;;;;;;;17.60;99.90;;;;;;5012785;28;19913;-69
2021/05/07 14:15:29;;;;;;;;;;;17.60;99.90;;;;;;5012536;28;20375;-69
2021/05/07 14:17:55;;;;;;;;;;;17.60;99.90;;;;;;5012800;28;19914;-69
2021/05/07 14:20:22;;;;;;;;;;;17.60;99.90;;;;;;5012996;28;19909;-69
2021/05/07 14:22:50;;;;;;;;;;;17.60;99.90;;;;;;5012288;28;19921;-69